Time;durP1;ratioP1;P1;durP2;ratioP2;P2;SDS_P1;SDS_P2;PMS_P1;PMS_P2;Temp;Humidity;BMP_temperature;BMP_pressure;BME280_temperature;BME280_humidity;BME280_pressure;Samples;Min_cycle;Max_cycle;Signal;HPM_P1;HPM_P2
2023/08/13 00:02:12;;;;;;;15.70;3.65;;;;;;;;;;5082080;28;20385;-82
2023/08/13 00:04:38;;;;;;;20.02;4.20;;;;;;;;;;5105566;28;20032;-83
2023/08/13 00:07:04;;;;;;;11.90;3.45;;;;;;;;;;5093179;28;20058;-81
2023/08/13 00:09:30;;;;;;;10.23;3.40;;;;;;;;;;5075705;28;20036;-82
2023/08/13 00:11:56;;;;;;;13.07;3.60;;;;;;;;;;5074578;28;20093;-82
2023/08/13 00:14:23;;;;;;;12.57;3.30;;;;;;;;;;5085228;28;20090;-82
2023/08/13 00:16:49;;;;;;;15.18;3.95;;;;;;;;;;5075056;28;20040;-82
2023/08/13 00:19:15;;;;;;;13.30;3.60;;;;;;;;;;5093876;28;20392;-82
2023/08/13 00:21:41;;;;;;;9.98;3.33;;;;;;;;;;5107720;28;20052;-82
2023/08/13 00:24:08;;;;;;;9.95;3.05;;;;;;;;;;5095425;28;20079;-82
2023/08/13 00:26:36;;;;;;;11.88;3.42;;;;;;;;;;5112882;28;20053;-82
2023/08/13 00:29:03;;;;;;;18.17;3.25;;;;;;;;;;5095076;28;20040;-82
2023/08/13 00:31:29;;;;;;;11.93;3.50;;;;;;;;;;5093355;28;20043;-82
2023/08/13 00:33:55;;;;;;;14.43;3.40;;;;;;;;;;5108808;28;20059;-82
2023/08/13 00:36:21;;;;;;;11.93;3.28;;;;;;;;;;5058686;28;20043;-82
2023/08/13 00:38:47;;;;;;;12.45;3.28;;;;;;;;;;5075784;28;20094;-82
2023/08/13 00:41:13;;;;;;;13.70;4.13;;;;;;;;;;5093582;28;20039;-82
2023/08/13 00:43:40;;;;;;;10.18;3.65;;;;;;;;;;5113206;28;20047;-82
2023/08/13 00:46:07;;;;;;;10.50;3.33;;;;;;;;;;5088590;28;20071;-82
2023/08/13 00:48:33;;;;;;;13.35;3.53;;;;;;;;;;5074130;28;20068;-83
2023/08/13 00:51:00;;;;;;;12.23;3.65;;;;;;;;;;5078920;28;20113;-82
2023/08/13 00:53:26;;;;;;;12.70;3.58;;;;;;;;;;5074842;28;20044;-82
2023/08/13 00:55:52;;;;;;;10.50;3.42;;;;;;;;;;5074273;28;20052;-82
2023/08/13 00:58:19;;;;;;;13.75;3.47;;;;;;;;;;5092835;28;20480;-83
2023/08/13 01:00:46;;;;;;;13.95;3.85;;;;;;;;;;5107145;28;20055;-82
2023/08/13 01:03:12;;;;;;;12.70;3.55;;;;;;;;;;5094130;28;20345;-82
2023/08/13 01:05:41;;;;;;;14.63;3.50;;;;;;;;;;5092152;28;20040;-82
2023/08/13 01:08:14;;;;;;;13.75;3.83;;;;;;;;;;5094262;28;20493;-80
2023/08/13 01:10:44;;;;;;;14.95;4.20;;;;;;;;;;5099904;28;20035;-81
2023/08/13 01:13:10;;;;;;;12.40;3.80;;;;;;;;;;5094679;28;20127;-82
2023/08/13 01:15:41;;;;;;;14.35;3.70;;;;;;;;;;5111664;28;20040;-82
2023/08/13 01:18:07;;;;;;;15.88;3.90;;;;;;;;;;5110228;28;20130;-82
2023/08/13 01:20:38;;;;;;;12.43;3.40;;;;;;;;;;5078857;28;20031;-82
2023/08/13 01:23:04;;;;;;;14.88;3.60;;;;;;;;;;5110850;28;20036;-82
2023/08/13 01:25:31;;;;;;;14.52;3.72;;;;;;;;;;5083909;28;20060;-83
2023/08/13 01:28:16;;;;;;;14.70;3.65;;;;;;;;;;5096757;28;20079;-83
2023/08/13 01:30:45;;;;;;;11.25;3.67;;;;;;;;;;5111207;28;20062;-83
2023/08/13 01:33:13;;;;;;;12.98;3.60;;;;;;;;;;5111433;28;20054;-82
2023/08/13 01:35:40;;;;;;;12.15;4.03;;;;;;;;;;5104028;28;20369;-83
2023/08/13 01:38:07;;;;;;;12.07;3.75;;;;;;;;;;5116415;28;20407;-82
2023/08/13 01:40:33;;;;;;;12.60;3.95;;;;;;;;;;5098259;28;20050;-83
2023/08/13 01:42:59;;;;;;;12.93;3.88;;;;;;;;;;5098629;28;20134;-83
2023/08/13 01:45:25;;;;;;;16.55;4.45;;;;;;;;;;5097321;28;20048;-83
2023/08/13 01:47:51;;;;;;;13.30;3.83;;;;;;;;;;5081592;28;20051;-83
2023/08/13 01:50:17;;;;;;;14.65;3.85;;;;;;;;;;5102160;28;20047;-83
2023/08/13 01:52:44;;;;;;;14.30;4.45;;;;;;;;;;5088353;28;20040;-83
2023/08/13 01:55:10;;;;;;;13.68;3.90;;;;;;;;;;5077828;28;20460;-83
2023/08/13 01:57:36;;;;;;;14.77;4.10;;;;;;;;;;5077725;28;20087;-83
2023/08/13 02:00:02;;;;;;;13.80;4.05;;;;;;;;;;5077964;28;20400;-83
2023/08/13 02:02:28;;;;;;;13.60;4.07;;;;;;;;;;5070956;28;20059;-82
2023/08/13 02:04:54;;;;;;;16.92;3.97;;;;;;;;;;5115558;28;20043;-83
2023/08/13 02:07:20;;;;;;;17.42;4.15;;;;;;;;;;5106662;28;20400;-83
2023/08/13 02:09:46;;;;;;;18.08;4.50;;;;;;;;;;5095685;28;20129;-82
2023/08/13 02:12:13;;;;;;;16.98;4.25;;;;;;;;;;5077056;28;20105;-83
2023/08/13 02:14:39;;;;;;;13.75;3.95;;;;;;;;;;5076410;28;20127;-83
2023/08/13 02:17:12;;;;;;;16.20;4.38;;;;;;;;;;5078544;28;20051;-83
2023/08/13 02:19:40;;;;;;;12.63;4.22;;;;;;;;;;5107042;28;20152;-83
2023/08/13 02:22:06;;;;;;;17.52;4.07;;;;;;;;;;5062545;28;20048;-83
2023/08/13 02:24:32;;;;;;;14.85;4.10;;;;;;;;;;5116227;28;20046;-83
2023/08/13 02:26:58;;;;;;;14.63;4.00;;;;;;;;;;5090484;28;20091;-82
2023/08/13 02:29:24;;;;;;;13.88;4.20;;;;;;;;;;5077267;28;20048;-83
2023/08/13 02:31:50;;;;;;;15.77;3.55;;;;;;;;;;5076826;28;20048;-83
2023/08/13 02:34:16;;;;;;;17.38;4.13;;;;;;;;;;5077504;28;20059;-84
2023/08/13 02:36:43;;;;;;;15.10;4.30;;;;;;;;;;5075416;28;20036;-83
2023/08/13 02:39:09;;;;;;;14.77;4.43;;;;;;;;;;5060538;28;20054;-83
2023/08/13 02:41:35;;;;;;;11.82;4.00;;;;;;;;;;5094881;28;20127;-83
2023/08/13 02:44:01;;;;;;;15.68;4.45;;;;;;;;;;5091394;28;20437;-83
2023/08/13 02:46:27;;;;;;;15.30;4.05;;;;;;;;;;5076478;28;20036;-83
2023/08/13 02:48:54;;;;;;;17.83;4.45;;;;;;;;;;5080940;28;20154;-83
2023/08/13 02:51:21;;;;;;;19.42;4.53;;;;;;;;;;5094590;28;20174;-83
2023/08/13 02:53:47;;;;;;;19.33;4.47;;;;;;;;;;5080817;28;20480;-83
2023/08/13 02:56:13;;;;;;;15.98;4.90;;;;;;;;;;5096927;28;20039;-82
2023/08/13 02:58:39;;;;;;;13.25;4.13;;;;;;;;;;5096519;28;20085;-82
2023/08/13 03:01:05;;;;;;;13.20;3.92;;;;;;;;;;5096414;28;20101;-82
2023/08/13 03:03:32;;;;;;;19.02;4.70;;;;;;;;;;5096639;28;20047;-82
2023/08/13 03:05:58;;;;;;;18.02;4.53;;;;;;;;;;5081937;28;20040;-82
2023/08/13 03:08:25;;;;;;;19.35;4.60;;;;;;;;;;5095176;28;20044;-82
2023/08/13 03:10:51;;;;;;;17.40;4.13;;;;;;;;;;5094283;28;20126;-82
2023/08/13 03:13:17;;;;;;;17.25;4.10;;;;;;;;;;5077018;28;20099;-82
2023/08/13 03:15:44;;;;;;;17.77;4.40;;;;;;;;;;5060849;28;20051;-81
2023/08/13 03:18:10;;;;;;;16.92;4.35;;;;;;;;;;5094611;28;20138;-82
2023/08/13 03:20:37;;;;;;;15.70;4.25;;;;;;;;;;5109054;28;20044;-82
2023/08/13 03:23:04;;;;;;;19.10;4.47;;;;;;;;;;5081870;28;20059;-83
2023/08/13 03:25:30;;;;;;;16.45;4.60;;;;;;;;;;5079994;28;20113;-80
2023/08/13 03:27:56;;;;;;;15.55;4.53;;;;;;;;;;5087725;28;20063;-81
2023/08/13 03:30:22;;;;;;;16.00;4.30;;;;;;;;;;5081867;28;20044;-83
2023/08/13 03:32:48;;;;;;;18.02;4.85;;;;;;;;;;5096444;28;20052;-82
2023/08/13 03:35:14;;;;;;;17.60;4.68;;;;;;;;;;5095968;28;20464;-81
2023/08/13 03:37:41;;;;;;;20.02;4.65;;;;;;;;;;5096031;28;20126;-82
2023/08/13 03:40:07;;;;;;;17.70;5.10;;;;;;;;;;5095950;28;20086;-82
2023/08/13 03:42:33;;;;;;;16.73;4.45;;;;;;;;;;5095863;28;20533;-82
2023/08/13 03:45:00;;;;;;;13.75;4.45;;;;;;;;;;5093844;28;20051;-82
2023/08/13 03:47:26;;;;;;;18.05;5.13;;;;;;;;;;5113094;28;20081;-82
2023/08/13 03:49:52;;;;;;;18.08;4.43;;;;;;;;;;5107197;28;20042;-83
2023/08/13 03:52:18;;;;;;;16.80;4.47;;;;;;;;;;5105108;28;20052;-83
2023/08/13 03:54:44;;;;;;;18.02;5.15;;;;;;;;;;5090352;28;20047;-83
2023/08/13 03:57:10;;;;;;;17.58;4.78;;;;;;;;;;5092756;28;20053;-82
2023/08/13 03:59:37;;;;;;;17.95;4.68;;;;;;;;;;5094163;28;20061;-82
2023/08/13 04:02:03;;;;;;;22.38;4.85;;;;;;;;;;5075051;28;20085;-82
2023/08/13 04:04:29;;;;;;;23.63;5.10;;;;;;;;;;5093509;28;20046;-82
2023/08/13 04:06:55;;;;;;;16.90;4.90;;;;;;;;;;5074993;28;20107;-82
2023/08/13 04:09:21;;;;;;;17.60;4.78;;;;;;;;;;5075528;28;20492;-83
2023/08/13 04:11:47;;;;;;;17.42;5.15;;;;;;;;;;5075115;28;20048;-83
2023/08/13 04:14:13;;;;;;;15.48;4.38;;;;;;;;;;5093316;28;20090;-83
2023/08/13 04:16:39;;;;;;;22.10;5.45;;;;;;;;;;5091446;28;20044;-82
2023/08/13 04:19:05;;;;;;;16.35;4.75;;;;;;;;;;5073452;28;20488;-83
2023/08/13 04:21:32;;;;;;;15.35;4.40;;;;;;;;;;5058050;28;20044;-83
2023/08/13 04:23:58;;;;;;;14.95;4.45;;;;;;;;;;5070644;28;20101;-82
2023/08/13 04:26:25;;;;;;;13.95;4.72;;;;;;;;;;5092862;28;20052;-83
2023/08/13 04:28:51;;;;;;;14.93;4.60;;;;;;;;;;5075377;28;20127;-83
2023/08/13 04:31:20;;;;;;;21.30;4.85;;;;;;;;;;5058974;28;20059;-83
2023/08/13 04:33:46;;;;;;;16.23;5.00;;;;;;;;;;5077580;28;20035;-83
2023/08/13 04:36:12;;;;;;;20.13;4.90;;;;;;;;;;5094257;28;20039;-82
2023/08/13 04:38:38;;;;;;;17.73;4.68;;;;;;;;;;5111601;28;20115;-82
2023/08/13 04:41:04;;;;;;;15.40;4.63;;;;;;;;;;5082331;28;20032;-82
2023/08/13 04:43:30;;;;;;;17.08;5.00;;;;;;;;;;5093787;28;20048;-82
2023/08/13 04:45:57;;;;;;;16.23;4.80;;;;;;;;;;5082858;28;20040;-82
2023/08/13 04:48:42;;;;;;;19.58;5.00;;;;;;;;;;5095417;28;20057;-83
2023/08/13 04:51:09;;;;;;;17.92;4.65;;;;;;;;;;5093082;28;20046;-82
2023/08/13 04:53:35;;;;;;;15.95;4.43;;;;;;;;;;5084143;28;20400;-82
2023/08/13 04:56:01;;;;;;;19.02;5.10;;;;;;;;;;5091559;28;20053;-82
2023/08/13 04:58:27;;;;;;;14.73;4.40;;;;;;;;;;5101907;28;20051;-82
2023/08/13 05:00:53;;;;;;;16.00;4.53;;;;;;;;;;5092522;28;20069;-82
2023/08/13 05:03:19;;;;;;;18.17;4.63;;;;;;;;;;5080470;28;20121;-82
2023/08/13 05:05:45;;;;;;;16.70;4.45;;;;;;;;;;5083587;28;20047;-82
2023/08/13 05:08:11;;;;;;;16.10;4.80;;;;;;;;;;5117096;28;20055;-82
2023/08/13 05:10:38;;;;;;;19.50;5.15;;;;;;;;;;5117324;28;20104;-82
2023/08/13 05:13:04;;;;;;;15.20;4.68;;;;;;;;;;5098950;28;20057;-82
2023/08/13 05:15:30;;;;;;;17.30;4.72;;;;;;;;;;5098618;28;20043;-83
2023/08/13 05:17:57;;;;;;;14.88;4.85;;;;;;;;;;5093366;28;20048;-83
2023/08/13 05:20:24;;;;;;;14.05;4.20;;;;;;;;;;5096578;28;20047;-82
2023/08/13 05:22:50;;;;;;;15.55;4.60;;;;;;;;;;5078381;28;20052;-82
2023/08/13 05:25:16;;;;;;;15.15;4.70;;;;;;;;;;5077977;28;20511;-82
2023/08/13 05:27:42;;;;;;;15.70;5.10;;;;;;;;;;5096675;28;20496;-82
2023/08/13 05:30:09;;;;;;;15.55;4.47;;;;;;;;;;5078308;28;20173;-82
2023/08/13 05:32:35;;;;;;;15.80;4.65;;;;;;;;;;5096721;28;20040;-82
2023/08/13 05:35:01;;;;;;;16.58;4.65;;;;;;;;;;5116402;28;20043;-83
2023/08/13 05:37:27;;;;;;;17.48;4.80;;;;;;;;;;5089232;28;20036;-83
2023/08/13 05:39:53;;;;;;;16.08;4.75;;;;;;;;;;5096294;28;20126;-82
2023/08/13 05:42:20;;;;;;;15.50;4.68;;;;;;;;;;5060061;28;20475;-82
2023/08/13 05:44:46;;;;;;;16.13;4.30;;;;;;;;;;5093675;28;20100;-83
2023/08/13 05:47:12;;;;;;;19.20;4.60;;;;;;;;;;5080851;28;20043;-83
2023/08/13 05:49:38;;;;;;;16.77;4.60;;;;;;;;;;5084135;28;20052;-82
2023/08/13 05:52:04;;;;;;;15.77;4.35;;;;;;;;;;5069268;28;20051;-82
2023/08/13 05:54:30;;;;;;;13.85;4.32;;;;;;;;;;5096542;28;20398;-83
2023/08/13 05:56:56;;;;;;;16.02;4.63;;;;;;;;;;5106963;28;20458;-83
2023/08/13 05:59:23;;;;;;;16.40;4.75;;;;;;;;;;5095868;28;20075;-83
2023/08/13 06:01:49;;;;;;;15.48;4.68;;;;;;;;;;5061792;28;20044;-83
2023/08/13 06:04:15;;;;;;;15.60;4.32;;;;;;;;;;5075527;28;20035;-83
2023/08/13 06:06:41;;;;;;;14.15;4.55;;;;;;;;;;5084014;28;20048;-83
2023/08/13 06:09:07;;;;;;;16.17;4.45;;;;;;;;;;5077509;28;20452;-83
2023/08/13 06:11:33;;;;;;;16.02;4.75;;;;;;;;;;5103939;28;20040;-76
2023/08/13 06:13:59;;;;;;;14.73;4.55;;;;;;;;;;5084653;28;20075;-76
2023/08/13 06:16:26;;;;;;;17.90;5.03;;;;;;;;;;5081238;28;20044;-76
2023/08/13 06:18:52;;;;;;;14.05;4.60;;;;;;;;;;5095122;28;20135;-76
2023/08/13 06:21:18;;;;;;;14.07;4.75;;;;;;;;;;5098579;28;20083;-75
2023/08/13 06:23:44;;;;;;;16.15;4.43;;;;;;;;;;5077480;28;20097;-75
2023/08/13 06:26:10;;;;;;;15.25;4.40;;;;;;;;;;5094380;28;20455;-75
2023/08/13 06:28:37;;;;;;;14.35;5.03;;;;;;;;;;5094998;28;20097;-76
2023/08/13 06:31:03;;;;;;;16.98;4.88;;;;;;;;;;5096913;28;20501;-76
2023/08/13 06:33:30;;;;;;;11.52;4.43;;;;;;;;;;5102043;28;20104;-77
2023/08/13 06:35:56;;;;;;;16.27;4.70;;;;;;;;;;5114511;28;20047;-76
2023/08/13 06:38:23;;;;;;;13.57;4.38;;;;;;;;;;5099365;28;20400;-77
2023/08/13 06:40:50;;;;;;;14.50;5.07;;;;;;;;;;5090587;28;20337;-76
2023/08/13 06:43:16;;;;;;;14.15;4.80;;;;;;;;;;5094059;28;20126;-76
2023/08/13 06:45:42;;;;;;;12.30;4.65;;;;;;;;;;5076101;28;20086;-76
2023/08/13 06:48:08;;;;;;;15.88;5.10;;;;;;;;;;5094689;28;20048;-76
2023/08/13 06:50:34;;;;;;;20.92;5.00;;;;;;;;;;5076010;28;20036;-76
2023/08/13 06:53:01;;;;;;;13.23;5.07;;;;;;;;;;5093796;28;20047;-76
2023/08/13 06:55:27;;;;;;;15.43;5.18;;;;;;;;;;5114796;28;20103;-76
2023/08/13 06:57:53;;;;;;;12.48;4.43;;;;;;;;;;5096894;28;20539;-75
2023/08/13 07:00:20;;;;;;;12.60;4.88;;;;;;;;;;5114762;28;20039;-76
2023/08/13 07:02:46;;;;;;;13.05;4.63;;;;;;;;;;5122572;28;20050;-76
2023/08/13 07:05:14;;;;;;;16.77;5.10;;;;;;;;;;5109818;28;20066;-76
2023/08/13 07:07:41;;;;;;;13.48;4.35;;;;;;;;;;5100068;28;20111;-76
2023/08/13 07:10:07;;;;;;;16.90;5.15;;;;;;;;;;5101169;28;20185;-75
2023/08/13 07:12:33;;;;;;;19.15;4.82;;;;;;;;;;5076673;28;20078;-75
2023/08/13 07:15:03;;;;;;;15.55;5.22;;;;;;;;;;5093741;28;20043;-76
2023/08/13 07:17:30;;;;;;;15.60;4.90;;;;;;;;;;5093799;28;20059;-76
2023/08/13 07:19:56;;;;;;;14.23;4.47;;;;;;;;;;5093833;28;20040;-76
2023/08/13 07:22:22;;;;;;;16.73;4.38;;;;;;;;;;5092904;28;20076;-75
2023/08/13 07:24:48;;;;;;;16.88;4.63;;;;;;;;;;5076105;28;20059;-75
2023/08/13 07:27:15;;;;;;;15.60;4.18;;;;;;;;;;5113751;28;20051;-75
2023/08/13 07:29:41;;;;;;;13.75;4.07;;;;;;;;;;5095812;28;20054;-76
2023/08/13 07:32:07;;;;;;;13.07;4.50;;;;;;;;;;5113980;28;20040;-76
2023/08/13 07:34:33;;;;;;;15.68;4.60;;;;;;;;;;5095867;28;20138;-76
2023/08/13 07:36:59;;;;;;;12.00;4.10;;;;;;;;;;5113427;28;20044;-75
2023/08/13 07:39:25;;;;;;;13.75;4.25;;;;;;;;;;5104337;28;20040;-75
2023/08/13 07:41:51;;;;;;;14.38;4.75;;;;;;;;;;5105830;28;20051;-75
2023/08/13 07:44:17;;;;;;;19.42;4.78;;;;;;;;;;5093831;28;20148;-75
2023/08/13 07:46:43;;;;;;;15.23;4.53;;;;;;;;;;5102912;28;20055;-75
2023/08/13 07:49:10;;;;;;;16.50;4.22;;;;;;;;;;5113176;28;20048;-75
2023/08/13 07:51:36;;;;;;;11.77;4.05;;;;;;;;;;5111825;28;20066;-75
2023/08/13 07:54:02;;;;;;;12.80;4.40;;;;;;;;;;5114086;28;20090;-75
2023/08/13 07:56:28;;;;;;;16.00;4.40;;;;;;;;;;5113293;28;20067;-75
2023/08/13 07:58:54;;;;;;;14.75;4.80;;;;;;;;;;5113858;28;20079;-75
2023/08/13 08:01:21;;;;;;;12.88;3.80;;;;;;;;;;5094167;28;20044;-75
2023/08/13 08:03:47;;;;;;;17.33;4.68;;;;;;;;;;5112950;28;20047;-75
2023/08/13 08:06:14;;;;;;;15.13;3.75;;;;;;;;;;5112941;28;20078;-76
2023/08/13 08:08:40;;;;;;;16.77;3.90;;;;;;;;;;5108389;28;20074;-76
2023/08/13 08:11:06;;;;;;;12.65;3.63;;;;;;;;;;5092901;28;20535;-76
2023/08/13 08:13:32;;;;;;;14.23;3.83;;;;;;;;;;5092879;28;20044;-77
2023/08/13 08:15:58;;;;;;;14.40;3.83;;;;;;;;;;5091301;28;20071;-76
2023/08/13 08:18:24;;;;;;;12.52;3.70;;;;;;;;;;5092803;28;20044;-76
2023/08/13 08:20:50;;;;;;;12.15;3.40;;;;;;;;;;5099777;28;20392;-75
2023/08/13 08:23:17;;;;;;;13.18;3.70;;;;;;;;;;5098640;28;20050;-76
2023/08/13 08:25:44;;;;;;;14.05;3.90;;;;;;;;;;5093334;28;20122;-76
2023/08/13 08:28:11;;;;;;;10.95;3.20;;;;;;;;;;5113590;28;20050;-76
2023/08/13 08:30:37;;;;;;;8.30;2.92;;;;;;;;;;5112891;28;20093;-76
2023/08/13 08:33:03;;;;;;;10.07;3.42;;;;;;;;;;5106384;28;20050;-76
2023/08/13 08:35:31;;;;;;;11.60;3.25;;;;;;;;;;5084861;28;20046;-76
2023/08/13 08:37:58;;;;;;;12.30;3.08;;;;;;;;;;5109584;28;20043;-76
2023/08/13 08:40:24;;;;;;;11.88;3.30;;;;;;;;;;5084472;28;20044;-76
2023/08/13 08:42:50;;;;;;;10.32;3.55;;;;;;;;;;5112984;28;20047;-76
2023/08/13 08:45:18;;;;;;;10.48;3.00;;;;;;;;;;5095554;28;20082;-76
2023/08/13 08:47:45;;;;;;;9.15;3.05;;;;;;;;;;5092786;28;20088;-76
2023/08/13 08:50:13;;;;;;;12.95;3.88;;;;;;;;;;5105791;28;20912;-76
2023/08/13 08:52:39;;;;;;;11.45;3.10;;;;;;;;;;5092297;28;20439;-76
2023/08/13 08:55:06;;;;;;;11.70;3.35;;;;;;;;;;5104478;28;20123;-75
2023/08/13 08:57:32;;;;;;;8.48;2.75;;;;;;;;;;5081524;28;20056;-75
2023/08/13 08:59:59;;;;;;;13.70;2.83;;;;;;;;;;5092250;28;20052;-75
2023/08/13 09:02:25;;;;;;;10.10;2.83;;;;;;;;;;5112537;28;20112;-75
2023/08/13 09:04:51;;;;;;;9.38;2.88;;;;;;;;;;5102454;28;20040;-75
2023/08/13 09:07:17;;;;;;;12.30;3.10;;;;;;;;;;5092092;28;20486;-75
2023/08/13 09:09:46;;;;;;;8.98;2.55;;;;;;;;;;5098517;28;20047;-75
2023/08/13 09:12:13;;;;;;;9.10;2.50;;;;;;;;;;5112576;28;20387;-76
2023/08/13 09:14:39;;;;;;;8.52;2.55;;;;;;;;;;5117483;28;20047;-76
2023/08/13 09:17:06;;;;;;;7.95;2.47;;;;;;;;;;5103241;28;20123;-76
2023/08/13 09:19:33;;;;;;;9.02;2.35;;;;;;;;;;5105004;28;20075;-76
2023/08/13 09:22:01;;;;;;;7.85;2.20;;;;;;;;;;5112274;28;20402;-76
2023/08/13 09:24:37;;;;;;;7.70;2.45;;;;;;;;;;5112634;28;20092;-76
2023/08/13 09:27:05;;;;;;;9.68;2.65;;;;;;;;;;5114327;28;20468;-76
2023/08/13 09:29:31;;;;;;;8.00;2.30;;;;;;;;;;5132364;28;20505;-76
2023/08/13 09:31:58;;;;;;;7.95;2.22;;;;;;;;;;5132832;28;20097;-76
2023/08/13 09:34:25;;;;;;;8.55;2.53;;;;;;;;;;5119947;28;20040;-76
2023/08/13 09:36:52;;;;;;;10.73;2.85;;;;;;;;;;5111284;28;20051;-76
2023/08/13 09:39:18;;;;;;;7.60;2.05;;;;;;;;;;5089091;28;20065;-76
2023/08/13 09:41:45;;;;;;;9.75;2.40;;;;;;;;;;5112428;28;20039;-76
2023/08/13 09:44:13;;;;;;;10.20;2.60;;;;;;;;;;5112648;28;20044;-76
2023/08/13 09:46:40;;;;;;;8.73;2.40;;;;;;;;;;5115451;28;20117;-76
2023/08/13 09:49:09;;;;;;;10.70;2.50;;;;;;;;;;5098009;28;20548;-78
2023/08/13 09:51:36;;;;;;;9.02;2.22;;;;;;;;;;5095766;28;20058;-77
2023/08/13 09:54:07;;;;;;;6.07;2.03;;;;;;;;;;5097192;28;20046;-77
2023/08/13 09:56:34;;;;;;;7.35;1.90;;;;;;;;;;5115960;28;20042;-79
2023/08/13 09:59:00;;;;;;;6.97;1.92;;;;;;;;;;5114536;28;20049;-78
2023/08/13 10:01:27;;;;;;;10.05;2.22;;;;;;;;;;5115992;28;20330;-79
2023/08/13 10:03:53;;;;;;;8.18;2.40;;;;;;;;;;5115761;28;20058;-77
2023/08/13 10:06:19;;;;;;;9.18;2.50;;;;;;;;;;5110082;28;20035;-79
2023/08/13 10:08:46;;;;;;;7.13;2.00;;;;;;;;;;5102850;28;20508;-78
2023/08/13 10:11:13;;;;;;;8.73;2.00;;;;;;;;;;5077444;28;20048;-78
2023/08/13 10:13:39;;;;;;;5.13;1.85;;;;;;;;;;5095885;28;20048;-79
2023/08/13 10:16:06;;;;;;;6.97;2.00;;;;;;;;;;5076747;28;20044;-79
2023/08/13 10:18:33;;;;;;;7.32;2.03;;;;;;;;;;5077275;28;20047;-78
2023/08/13 10:20:59;;;;;;;8.50;2.15;;;;;;;;;;5076752;28;20055;-78
2023/08/13 10:23:27;;;;;;;6.18;2.20;;;;;;;;;;5078640;28;20094;-78
2023/08/13 10:25:55;;;;;;;7.50;1.80;;;;;;;;;;5074401;28;20052;-79
2023/08/13 10:28:32;;;;;;;4.50;1.85;;;;;;;;;;5092688;28;20435;-80
2023/08/13 10:31:29;;;;;;;7.25;1.73;;;;;;;;;;5073866;28;20571;-80
2023/08/13 10:34:10;;;;;;;7.10;1.95;;;;;;;;;;5075878;28;20143;-79
2023/08/13 10:36:45;;;;;;;6.50;2.00;;;;;;;;;;5097471;28;20394;-78
2023/08/13 10:39:30;;;;;;;6.10;1.90;;;;;;;;;;5097740;28;20427;-79
2023/08/13 10:41:56;;;;;;;4.70;1.63;;;;;;;;;;5091790;28;20052;-78
2023/08/13 10:44:27;;;;;;;5.72;1.70;;;;;;;;;;5091623;28;20293;-79
2023/08/13 10:46:54;;;;;;;7.88;2.00;;;;;;;;;;5089668;28;20628;-80
2023/08/13 10:49:20;;;;;;;7.53;1.98;;;;;;;;;;5091457;28;20051;-80
2023/08/13 10:51:49;;;;;;;8.40;2.13;;;;;;;;;;5092934;28;20126;-80
2023/08/13 10:54:15;;;;;;;5.57;1.90;;;;;;;;;;5089489;28;20047;-80
2023/08/13 10:56:45;;;;;;;5.35;2.05;;;;;;;;;;5110678;28;20092;-79
2023/08/13 10:59:12;;;;;;;6.90;1.90;;;;;;;;;;5093880;28;20091;-79
2023/08/13 11:01:58;;;;;;;7.40;2.17;;;;;;;;;;5092337;28;20192;-80
2023/08/13 11:04:24;;;;;;;6.28;1.63;;;;;;;;;;5093530;28;20048;-79
2023/08/13 11:06:50;;;;;;;4.40;1.58;;;;;;;;;;5111060;28;20046;-81
2023/08/13 11:09:17;;;;;;;5.63;1.70;;;;;;;;;;5096164;28;20040;-80
2023/08/13 11:11:43;;;;;;;5.88;1.58;;;;;;;;;;5105197;28;20040;-80
2023/08/13 11:14:09;;;;;;;6.25;1.63;;;;;;;;;;5087977;27;20071;-79
2023/08/13 11:16:35;;;;;;;5.93;1.80;;;;;;;;;;5095133;28;20040;-80
2023/08/13 11:19:04;;;;;;;7.07;2.10;;;;;;;;;;5076783;28;20079;-80
2023/08/13 11:21:30;;;;;;;5.70;1.83;;;;;;;;;;5089241;27;20043;-80
2023/08/13 11:23:58;;;;;;;6.50;1.90;;;;;;;;;;5116905;27;20079;-79
2023/08/13 11:26:24;;;;;;;6.70;1.83;;;;;;;;;;5134563;27;20130;-79
2023/08/13 11:28:51;;;;;;;6.25;1.58;;;;;;;;;;5135284;27;20126;-79
2023/08/13 11:31:17;;;;;;;6.85;1.88;;;;;;;;;;5134326;27;20182;-79
2023/08/13 11:33:44;;;;;;;4.43;1.63;;;;;;;;;;5133735;27;20401;-78
2023/08/13 11:36:10;;;;;;;6.75;2.20;;;;;;;;;;5087644;28;20044;-80
2023/08/13 11:38:36;;;;;;;5.18;1.90;;;;;;;;;;5094281;28;20370;-80
2023/08/13 11:41:16;;;;;;;7.80;2.08;;;;;;;;;;5094162;28;20119;-81
2023/08/13 11:43:42;;;;;;;4.93;1.80;;;;;;;;;;5093937;28;20044;-82
2023/08/13 11:46:08;;;;;;;5.88;2.10;;;;;;;;;;5104683;28;20098;-81
2023/08/13 11:48:37;;;;;;;6.38;1.90;;;;;;;;;;5094524;28;20051;-78
2023/08/13 11:51:14;;;;;;;4.40;1.80;;;;;;;;;;5097272;28;20072;-81
2023/08/13 11:53:43;;;;;;;5.28;1.70;;;;;;;;;;5076069;28;20069;-81
2023/08/13 11:56:13;;;;;;;7.88;1.92;;;;;;;;;;5100018;28;20123;-80
2023/08/13 11:58:40;;;;;;;4.90;1.80;;;;;;;;;;5096575;28;20055;-81
2023/08/13 12:01:06;;;;;;;7.28;1.90;;;;;;;;;;5075663;28;20102;-81
2023/08/13 12:03:36;;;;;;;4.57;1.70;;;;;;;;;;5093954;28;20060;-81
2023/08/13 12:06:02;;;;;;;7.60;2.15;;;;;;;;;;5093798;28;20412;-80
2023/08/13 12:08:28;;;;;;;7.30;1.90;;;;;;;;;;5092988;28;20408;-80
2023/08/13 12:10:54;;;;;;;4.60;1.60;;;;;;;;;;5089956;28;20040;-80
2023/08/13 12:13:21;;;;;;;4.95;1.75;;;;;;;;;;5091986;28;20043;-81
2023/08/13 12:15:47;;;;;;;4.63;1.80;;;;;;;;;;5093266;28;20499;-80
2023/08/13 12:18:13;;;;;;;6.47;1.70;;;;;;;;;;5075399;28;20051;-81
2023/08/13 12:20:39;;;;;;;6.00;2.22;;;;;;;;;;5092760;28;20382;-80
2023/08/13 12:23:05;;;;;;;8.25;2.00;;;;;;;;;;5092069;28;20186;-78
2023/08/13 12:25:31;;;;;;;8.15;1.90;;;;;;;;;;5092821;28;20081;-78
2023/08/13 12:27:57;;;;;;;5.65;1.90;;;;;;;;;;5092650;28;20067;-78
2023/08/13 12:30:24;;;;;;;5.60;1.67;;;;;;;;;;5072830;28;20412;-79
2023/08/13 12:32:50;;;;;;;6.30;1.80;;;;;;;;;;5091884;28;20055;-79
2023/08/13 12:35:17;;;;;;;5.55;1.60;;;;;;;;;;5092490;28;20139;-80
2023/08/13 12:37:43;;;;;;;5.18;1.60;;;;;;;;;;5093210;28;20144;-79
2023/08/13 12:40:10;;;;;;;5.50;1.50;;;;;;;;;;5092657;28;20570;-80
2023/08/13 12:42:36;;;;;;;4.03;1.50;;;;;;;;;;5074939;28;20079;-79
2023/08/13 12:45:04;;;;;;;4.38;1.60;;;;;;;;;;5092944;28;20044;-78
2023/08/13 12:47:30;;;;;;;5.97;1.40;;;;;;;;;;5093277;28;20072;-80
2023/08/13 12:49:56;;;;;;;3.65;1.50;;;;;;;;;;5092520;28;20083;-79
2023/08/13 12:52:22;;;;;;;3.38;1.48;;;;;;;;;;5094059;28;20119;-81
2023/08/13 12:54:48;;;;;;;4.07;1.50;;;;;;;;;;5094872;28;20058;-81
2023/08/13 12:57:14;;;;;;;4.03;1.42;;;;;;;;;;5094911;28;20043;-80
2023/08/13 12:59:41;;;;;;;3.65;1.48;;;;;;;;;;5111396;28;20043;-80
2023/08/13 13:02:07;;;;;;;4.35;1.40;;;;;;;;;;5111126;28;20050;-81
2023/08/13 13:04:33;;;;;;;4.32;1.58;;;;;;;;;;5087307;28;20075;-80
2023/08/13 13:06:59;;;;;;;4.82;1.60;;;;;;;;;;5074580;28;20396;-80
2023/08/13 13:09:25;;;;;;;2.78;1.30;;;;;;;;;;5073716;28;20043;-80
2023/08/13 13:11:51;;;;;;;5.32;1.67;;;;;;;;;;5074551;28;20044;-80
2023/08/13 13:14:17;;;;;;;3.45;1.75;;;;;;;;;;5074681;28;20044;-80
2023/08/13 13:16:43;;;;;;;3.40;1.35;;;;;;;;;;5093046;28;20101;-80
2023/08/13 13:19:09;;;;;;;4.35;1.40;;;;;;;;;;5091065;28;20377;-80
2023/08/13 13:21:35;;;;;;;5.10;1.80;;;;;;;;;;5096360;28;20086;-80
2023/08/13 13:24:01;;;;;;;5.85;1.65;;;;;;;;;;5096635;28;20066;-80
2023/08/13 13:26:28;;;;;;;3.65;1.50;;;;;;;;;;5096528;28;20079;-81
2023/08/13 13:28:54;;;;;;;4.55;1.38;;;;;;;;;;5098294;28;20052;-81
2023/08/13 13:31:20;;;;;;;5.00;1.63;;;;;;;;;;5078098;28;20480;-82
2023/08/13 13:33:46;;;;;;;4.22;1.35;;;;;;;;;;5106886;28;20043;-81
2023/08/13 13:36:12;;;;;;;4.35;1.38;;;;;;;;;;5095331;28;20375;-80
2023/08/13 13:38:38;;;;;;;4.70;1.35;;;;;;;;;;5103548;28;20101;-80
2023/08/13 13:41:04;;;;;;;5.15;1.65;;;;;;;;;;5116628;28;20046;-80
2023/08/13 13:43:30;;;;;;;6.18;1.40;;;;;;;;;;5116658;28;20070;-81
2023/08/13 13:45:57;;;;;;;4.20;1.52;;;;;;;;;;5113863;28;20470;-80
2023/08/13 13:48:23;;;;;;;4.80;1.48;;;;;;;;;;5115598;28;20145;-81
2023/08/13 13:50:49;;;;;;;7.28;1.77;;;;;;;;;;5112305;28;20154;-81
2023/08/13 13:53:15;;;;;;;4.53;1.67;;;;;;;;;;5102552;28;20400;-80
2023/08/13 13:55:42;;;;;;;5.85;1.80;;;;;;;;;;5094457;28;20044;-80
2023/08/13 13:58:08;;;;;;;5.50;1.75;;;;;;;;;;5110783;28;20389;-79
2023/08/13 14:00:35;;;;;;;3.70;1.35;;;;;;;;;;5098157;28;20054;-81
2023/08/13 14:03:01;;;;;;;5.53;1.60;;;;;;;;;;5097279;28;20048;-80
2023/08/13 14:05:28;;;;;;;4.07;1.67;;;;;;;;;;5105624;27;20187;-79
2023/08/13 14:07:54;;;;;;;6.40;1.60;;;;;;;;;;5127218;27;20180;-79
2023/08/13 14:10:20;;;;;;;4.00;1.70;;;;;;;;;;5097649;28;20074;-80
2023/08/13 14:12:46;;;;;;;4.13;1.60;;;;;;;;;;5113625;28;20419;-81
2023/08/13 14:15:12;;;;;;;4.32;1.70;;;;;;;;;;5081122;28;20127;-78
2023/08/13 14:17:38;;;;;;;4.53;1.70;;;;;;;;;;5108797;28;20040;-79
2023/08/13 14:20:08;;;;;;;5.80;1.88;;;;;;;;;;5091792;28;20039;-80
2023/08/13 14:22:34;;;;;;;5.70;1.92;;;;;;;;;;5105510;28;20131;-80
2023/08/13 14:25:00;;;;;;;8.15;2.20;;;;;;;;;;5104970;28;20040;-81
2023/08/13 14:27:26;;;;;;;6.78;1.88;;;;;;;;;;5104489;28;20054;-80
2023/08/13 14:29:52;;;;;;;5.80;2.10;;;;;;;;;;5102971;28;20036;-80
2023/08/13 14:32:22;;;;;;;6.75;1.80;;;;;;;;;;5087005;28;20451;-80
2023/08/13 14:34:49;;;;;;;8.27;2.40;;;;;;;;;;5105378;28;20054;-80